createdAt,value
2023-04-08T00:01:16.498Z,99505.06
2023-04-08T00:03:44.962Z,99502.31
2023-04-08T00:06:13.378Z,99503.13
2023-04-08T00:08:41.924Z,99509.75
2023-04-08T00:11:10.257Z,99502.84
2023-04-08T00:13:38.477Z,99498.13
2023-04-08T00:16:06.729Z,99501.47
2023-04-08T00:18:38.396Z,99502.69
2023-04-08T00:21:06.804Z,99508.53
2023-04-08T00:23:35.282Z,99512.03
2023-04-08T00:26:03.491Z,99506.22
2023-04-08T00:28:34.296Z,99509.97
2023-04-08T00:31:02.948Z,99512.38
2023-04-08T00:33:31.320Z,99509.84
2023-04-08T00:36:01.087Z,99510.16
2023-04-08T00:38:29.592Z,99509.97
2023-04-08T00:40:59.724Z,99510.28
2023-04-08T00:43:27.897Z,99511.06
2023-04-08T00:45:57.617Z,99508.72
2023-04-08T00:48:26.069Z,99505.16
2023-04-08T00:50:55.835Z,99517.34
2023-04-08T00:53:25.830Z,99522.69
2023-04-08T00:55:54.321Z,99522.91
2023-04-08T00:58:23.159Z,99516.19
2023-04-08T01:00:57.666Z,99521.47
2023-04-08T01:03:38.199Z,99523.38
2023-04-08T01:06:14.869Z,99521.16
2023-04-08T01:08:44.911Z,99529.22
2023-04-08T01:11:15.781Z,99513.94
2023-04-08T01:13:46.455Z,99517.41
2023-04-08T01:16:17.564Z,99529.53
2023-04-08T01:18:48.179Z,99521.03
2023-04-08T01:21:18.126Z,99519.06
2023-04-08T01:23:59.967Z,99529.94
2023-04-08T01:26:30.723Z,99528.38
2023-04-08T01:29:02.103Z,99516.47
2023-04-08T01:31:32.173Z,99521.31
2023-04-08T01:34:02.894Z,99524.16
2023-04-08T01:36:33.453Z,99525.19
2023-04-08T01:39:02.660Z,99526.63
2023-04-08T01:41:33.008Z,99527.91
2023-04-08T01:44:02.102Z,99526.97
2023-04-08T01:46:32.231Z,99523.88
2023-04-08T01:49:01.225Z,99513.91
2023-04-08T01:51:32.891Z,99520.13
2023-04-08T01:54:01.307Z,99523.09
2023-04-08T01:56:34.515Z,99520.34
2023-04-08T01:59:10.217Z,99529.19
2023-04-08T02:01:39.169Z,99523.91
2023-04-08T02:04:12.873Z,99528.28
2023-04-08T02:06:41.391Z,99523.91
2023-04-08T02:09:09.715Z,99531.81
2023-04-08T02:11:39.571Z,99527.81
2023-04-08T02:14:08.299Z,99534.69
2023-04-08T02:16:44.161Z,99531.81
2023-04-08T02:19:19.486Z,99534.44
2023-04-08T02:21:50.537Z,99537.22
2023-04-08T02:24:20.006Z,99534.59
2023-04-08T02:26:52.147Z,99535.63
2023-04-08T02:29:20.771Z,99542.56
2023-04-08T02:31:50.569Z,99540.16
2023-04-08T02:34:19.539Z,99543.47
2023-04-08T02:36:49.042Z,99543.81
2023-04-08T02:39:18.276Z,99548.84
2023-04-08T02:41:47.618Z,99547.25
2023-04-08T02:44:18.625Z,99543.28
2023-04-08T02:46:46.638Z,99544.78
2023-04-08T02:49:14.998Z,99549.31
2023-04-08T02:51:43.062Z,99555.72
2023-04-08T02:54:12.512Z,99549.81
2023-04-08T02:56:41.613Z,99554.94
2023-04-08T02:59:10.035Z,99553.38
2023-04-08T03:01:40.159Z,99552.47
2023-04-08T03:04:08.545Z,99549.00
2023-04-08T03:06:36.818Z,99557.00
2023-04-08T03:09:06.245Z,99556.13
2023-04-08T03:11:35.881Z,99558.25
2023-04-08T03:14:04.307Z,99558.66
2023-04-08T03:16:33.302Z,99550.09
2023-04-08T03:19:02.984Z,99553.66
2023-04-08T03:21:31.945Z,99551.44
2023-04-08T03:24:00.924Z,99550.56
2023-04-08T03:26:29.616Z,99557.63
2023-04-08T03:28:58.076Z,99557.97
2023-04-08T03:31:27.542Z,99565.50
2023-04-08T03:33:55.993Z,99568.03
2023-04-08T03:36:26.909Z,99566.81
2023-04-08T03:38:56.380Z,99560.94
2023-04-08T03:41:24.424Z,99573.75
2023-04-08T03:43:53.318Z,99562.94
2023-04-08T03:46:22.848Z,99581.59
2023-04-08T03:48:51.254Z,99576.25
2023-04-08T03:51:19.614Z,99570.59
2023-04-08T03:53:49.441Z,99562.88
2023-04-08T03:56:17.700Z,99564.66
2023-04-08T03:58:48.854Z,99560.38
2023-04-08T04:01:18.307Z,99561.22
2023-04-08T04:03:47.181Z,99568.00
2023-04-08T04:06:15.739Z,99564.69
2023-04-08T04:08:44.132Z,99572.16
2023-04-08T04:11:13.954Z,99570.53
2023-04-08T04:13:42.665Z,99562.03
2023-04-08T04:16:11.064Z,99566.25
2023-04-08T04:18:39.590Z,99571.50
2023-04-08T04:21:08.090Z,99568.59
2023-04-08T04:23:36.505Z,99573.88
2023-04-08T04:26:09.861Z,99568.88
2023-04-08T04:28:39.714Z,99570.47
2023-04-08T04:31:07.812Z,99569.66
2023-04-08T04:33:36.367Z,99575.53
2023-04-08T04:36:04.942Z,99575.16
2023-04-08T04:38:33.412Z,99573.97
2023-04-08T04:41:01.860Z,99575.44
2023-04-08T04:43:30.279Z,99587.84
2023-04-08T04:46:00.881Z,99582.44
2023-04-08T04:48:30.047Z,99583.19
2023-04-08T04:50:58.683Z,99577.06
2023-04-08T04:53:27.002Z,99583.53
2023-04-08T04:55:55.632Z,99581.78
2023-04-08T04:58:23.828Z,99573.34
2023-04-08T05:00:52.141Z,99576.03
2023-04-08T05:03:22.172Z,99577.75
2023-04-08T05:05:53.448Z,99586.34
2023-04-08T05:08:22.360Z,99592.00
2023-04-08T05:10:51.892Z,99588.78
2023-04-08T05:13:22.002Z,99586.00
2023-04-08T05:15:50.526Z,99588.88
2023-04-08T05:18:19.006Z,99577.78
2023-04-08T05:20:48.750Z,99587.66
2023-04-08T05:23:17.278Z,99584.16
2023-04-08T05:25:45.842Z,99590.22
2023-04-08T05:28:13.789Z,99592.72
2023-04-08T05:30:42.187Z,99583.84
2023-04-08T05:33:13.325Z,99594.38
2023-04-08T05:35:41.453Z,99601.22
2023-04-08T05:38:11.683Z,99586.38
2023-04-08T05:40:40.124Z,99599.34
2023-04-08T05:43:08.325Z,99602.47
2023-04-08T05:45:36.416Z,99594.34
2023-04-08T05:48:04.855Z,99601.59
2023-04-08T05:50:33.189Z,99599.59
2023-04-08T05:53:01.654Z,99601.25
2023-04-08T05:55:31.472Z,99606.44
2023-04-08T05:57:59.928Z,99601.13
2023-04-08T06:00:28.479Z,99613.97
2023-04-08T06:02:57.123Z,99604.38
2023-04-08T06:05:25.869Z,99611.53
2023-04-08T06:07:54.343Z,99608.59
2023-04-08T06:10:22.654Z,99610.91
2023-04-08T06:12:52.367Z,99623.63
2023-04-08T06:15:21.334Z,99620.59
2023-04-08T06:17:49.731Z,99628.75
2023-04-08T06:20:18.307Z,99634.84
2023-04-08T06:22:46.510Z,99641.34
2023-04-08T06:25:14.752Z,99652.63
2023-04-08T06:27:42.850Z,99648.59
2023-04-08T06:30:13.591Z,99659.50
2023-04-08T06:32:41.785Z,99661.94
2023-04-08T06:35:11.277Z,99666.81
2023-04-08T06:37:39.690Z,99672.81
2023-04-08T06:40:09.335Z,99671.78
2023-04-08T06:42:38.479Z,99663.81
2023-04-08T06:45:08.104Z,99664.34
2023-04-08T06:47:37.650Z,99661.69
2023-04-08T06:50:06.689Z,99672.22
2023-04-08T06:52:35.544Z,99670.31
2023-04-08T06:55:03.697Z,99667.31
2023-04-08T06:57:32.937Z,99673.34
2023-04-08T07:00:03.659Z,99669.88
2023-04-08T07:02:32.262Z,99677.19
2023-04-08T07:05:02.060Z,99680.44
2023-04-08T07:07:30.471Z,99677.81
2023-04-08T07:09:58.981Z,99689.94
2023-04-08T07:12:28.724Z,99695.47
2023-04-08T07:14:57.108Z,99690.28
2023-04-08T07:17:25.253Z,99693.72
2023-04-08T07:19:53.518Z,99696.97
2023-04-08T07:22:23.334Z,99699.94
2023-04-08T07:24:52.273Z,99696.16
2023-04-08T07:27:21.387Z,99701.13
2023-04-08T07:29:54.803Z,99706.19
2023-04-08T07:32:27.009Z,99701.72
2023-04-08T07:34:55.217Z,99712.41
2023-04-08T07:37:26.678Z,99710.59
2023-04-08T07:39:54.940Z,99705.84
2023-04-08T07:42:23.273Z,99706.84
2023-04-08T07:44:52.558Z,99717.63
2023-04-08T07:47:21.400Z,99719.94
2023-04-08T07:49:49.950Z,99712.06
2023-04-08T07:52:18.098Z,99720.16
2023-04-08T07:54:47.966Z,99714.16
2023-04-08T07:57:16.708Z,99718.72
2023-04-08T07:59:46.177Z,99724.91
2023-04-08T08:02:14.331Z,99725.53
2023-04-08T08:04:42.613Z,99726.75
2023-04-08T08:07:11.403Z,99734.38
2023-04-08T08:09:39.615Z,99737.44
2023-04-08T08:12:09.427Z,99738.63
2023-04-08T08:14:37.579Z,99739.69
2023-04-08T08:17:05.629Z,99738.41
2023-04-08T08:19:33.938Z,99745.63
2023-04-08T08:22:02.007Z,99746.41
2023-04-08T08:24:30.022Z,99748.13
2023-04-08T08:26:58.785Z,99751.72
2023-04-08T08:29:28.417Z,99756.25
2023-04-08T08:32:00.278Z,99761.56
2023-04-08T08:34:29.017Z,99757.97
2023-04-08T08:36:57.198Z,99758.31
2023-04-08T08:39:26.064Z,99761.25
2023-04-08T08:41:54.305Z,99763.00
2023-04-08T08:44:22.574Z,99762.69
2023-04-08T08:46:53.466Z,99756.84
2023-04-08T08:49:22.354Z,99761.47
2023-04-08T08:51:52.199Z,99769.59
2023-04-08T08:54:21.822Z,99768.78
2023-04-08T08:56:53.274Z,99770.97
2023-04-08T08:59:21.450Z,99764.00
2023-04-08T09:01:49.897Z,99767.25
2023-04-08T09:04:22.751Z,99757.38
2023-04-08T09:07:06.128Z,99764.72
2023-04-08T09:09:50.046Z,99764.28
2023-04-08T09:12:21.045Z,99760.91
2023-04-08T09:14:49.829Z,99759.50
2023-04-08T09:17:18.280Z,99758.03
2023-04-08T09:20:15.334Z,99756.41
2023-04-08T09:23:00.932Z,99764.34
2023-04-08T09:25:30.907Z,99760.16
2023-04-08T09:27:59.615Z,99762.94
2023-04-08T09:30:29.539Z,99760.06
2023-04-08T09:32:59.341Z,99763.88
2023-04-08T09:35:29.019Z,99761.63
2023-04-08T09:37:59.094Z,99765.31
2023-04-08T09:40:29.122Z,99766.09
2023-04-08T09:42:58.776Z,99756.78
2023-04-08T09:45:28.790Z,99765.81
2023-04-08T09:47:59.874Z,99768.91
2023-04-08T09:50:37.833Z,99760.84
2023-04-08T09:53:15.485Z,99761.94
2023-04-08T09:55:48.861Z,99764.25
2023-04-08T09:58:20.309Z,99754.00
2023-04-08T10:00:51.943Z,99756.69
2023-04-08T10:03:31.162Z,99748.53
2023-04-08T10:06:03.606Z,99753.38
2023-04-08T10:08:33.235Z,99747.47
2023-04-08T10:11:03.028Z,99747.06
2023-04-08T10:13:32.136Z,99739.28
2023-04-08T10:16:24.621Z,99739.50
2023-04-08T10:18:56.283Z,99736.63
2023-04-08T10:21:37.177Z,99744.41
2023-04-08T10:24:09.208Z,99740.81
2023-04-08T10:26:40.782Z,99745.22
2023-04-08T10:29:34.424Z,99745.22
2023-04-08T10:32:03.216Z,99743.06
2023-04-08T10:34:31.887Z,99742.72
2023-04-08T10:37:02.366Z,99738.22
2023-04-08T10:39:32.279Z,99733.63
2023-04-08T10:42:06.097Z,99731.13
2023-04-08T10:44:34.663Z,99724.44
2023-04-08T10:47:03.381Z,99729.25
2023-04-08T10:49:35.987Z,99732.91
2023-04-08T10:52:10.527Z,99737.81
2023-04-08T10:54:40.558Z,99736.59
2023-04-08T10:57:09.208Z,99737.34
2023-04-08T10:59:37.469Z,99733.03
2023-04-08T11:02:05.860Z,99733.47
2023-04-08T11:04:34.745Z,99749.41
2023-04-08T11:07:08.355Z,99747.31
2023-04-08T11:09:41.244Z,99739.72
2023-04-08T11:12:09.434Z,99740.31
2023-04-08T11:14:38.860Z,99739.75
2023-04-08T11:17:08.620Z,99739.69
2023-04-08T11:19:37.847Z,99733.31
2023-04-08T11:22:09.680Z,99737.47
2023-04-08T11:24:41.334Z,99737.22
2023-04-08T11:27:09.427Z,99745.91
2023-04-08T11:29:38.663Z,99754.41
2023-04-08T11:32:06.998Z,99747.22
2023-04-08T11:34:35.231Z,99745.69
2023-04-08T11:37:03.716Z,99753.63
2023-04-08T11:39:32.405Z,99743.03
2023-04-08T11:42:01.975Z,99740.38
2023-04-08T11:44:33.753Z,99739.94
2023-04-08T11:47:02.403Z,99731.53
2023-04-08T11:49:45.457Z,99731.63
2023-04-08T11:52:14.148Z,99737.03
2023-04-08T11:54:43.593Z,99739.97
2023-04-08T11:57:15.133Z,99739.28
2023-04-08T11:59:43.493Z,99732.38
2023-04-08T12:02:12.613Z,99733.59
2023-04-08T12:04:40.733Z,99734.13
2023-04-08T12:07:08.987Z,99738.25
2023-04-08T12:09:38.620Z,99735.50
2023-04-08T12:12:06.773Z,99737.38
2023-04-08T12:14:36.429Z,99743.19
2023-04-08T12:17:04.635Z,99741.03
2023-04-08T12:19:35.320Z,99741.03
2023-04-08T12:22:05.376Z,99751.38
2023-04-08T12:24:34.496Z,99750.25
2023-04-08T12:27:04.926Z,99747.84
2023-04-08T12:29:33.381Z,99746.94
2023-04-08T12:32:04.736Z,99748.81
2023-04-08T12:34:32.975Z,99750.72
2023-04-08T12:37:01.160Z,99752.16
2023-04-08T12:39:29.377Z,99741.22
2023-04-08T12:41:57.755Z,99741.91
2023-04-08T12:44:25.892Z,99742.44
2023-04-08T12:46:54.982Z,99744.13
2023-04-08T12:49:26.786Z,99741.91
2023-04-08T12:51:55.383Z,99733.50
2023-04-08T12:54:23.764Z,99721.09
2023-04-08T12:56:51.972Z,99722.47
2023-04-08T12:59:20.268Z,99718.97
2023-04-08T13:01:48.989Z,99726.94
2023-04-08T13:04:18.075Z,99722.25
2023-04-08T13:06:47.769Z,99722.44
2023-04-08T13:09:16.347Z,99716.19
2023-04-08T13:11:44.636Z,99718.75
2023-04-08T13:14:13.945Z,99720.13
2023-04-08T13:16:42.083Z,99720.94
2023-04-08T13:19:10.561Z,99718.91
2023-04-08T13:21:38.808Z,99715.44
2023-04-08T13:24:08.745Z,99715.03
2023-04-08T13:26:36.919Z,99711.34
2023-04-08T13:29:05.726Z,99713.06
2023-04-08T13:31:34.240Z,99708.22
2023-04-08T13:34:02.927Z,99708.53
2023-04-08T13:36:31.758Z,99718.66
2023-04-08T13:38:59.936Z,99712.41
2023-04-08T13:41:30.277Z,99708.78
2023-04-08T13:43:58.772Z,99710.03
2023-04-08T13:46:27.005Z,99717.53
2023-04-08T13:48:56.037Z,99714.69
2023-04-08T13:51:24.341Z,99718.38
2023-04-08T13:53:52.570Z,99710.88
2023-04-08T13:56:21.181Z,99717.63
2023-04-08T13:58:57.619Z,99712.56
2023-04-08T14:01:26.216Z,99710.13
2023-04-08T14:03:55.022Z,99716.97
2023-04-08T14:06:23.766Z,99710.53
2023-04-08T14:08:53.300Z,99709.94
2023-04-08T14:11:22.266Z,99705.25
2023-04-08T14:13:51.962Z,99696.78
2023-04-08T14:16:20.591Z,99706.13
2023-04-08T14:18:49.257Z,99709.47
2023-04-08T14:21:18.413Z,99714.72
2023-04-08T14:23:46.921Z,99710.25
2023-04-08T14:26:15.234Z,99723.19
2023-04-08T14:28:43.199Z,99714.09
2023-04-08T14:31:14.071Z,99712.88
2023-04-08T14:33:42.893Z,99719.56
2023-04-08T14:36:11.713Z,99721.25
2023-04-08T14:38:40.271Z,99723.06
2023-04-08T14:41:08.519Z,99715.88
2023-04-08T14:43:37.035Z,99718.91
2023-04-08T14:46:05.282Z,99720.31
2023-04-08T14:48:35.490Z,99715.28
2023-04-08T14:51:04.126Z,99710.53
2023-04-08T14:53:32.454Z,99709.66
2023-04-08T14:56:01.282Z,99714.22
2023-04-08T14:58:30.036Z,99715.53
2023-04-08T15:00:58.362Z,99711.13
2023-04-08T15:03:27.276Z,99711.78
2023-04-08T15:05:57.736Z,99711.94
2023-04-08T15:08:26.302Z,99709.69
2023-04-08T15:10:55.050Z,99711.59
2023-04-08T15:13:24.588Z,99723.53
2023-04-08T15:15:52.806Z,99715.88
2023-04-08T15:18:21.258Z,99711.50
2023-04-08T15:20:49.812Z,99712.34
2023-04-08T15:23:20.490Z,99717.69
2023-04-08T15:25:49.055Z,99712.69
2023-04-08T15:28:17.598Z,99718.59
2023-04-08T15:30:48.117Z,99717.75
2023-04-08T15:33:16.563Z,99716.69
2023-04-08T15:35:48.044Z,99713.97
2023-04-08T15:38:16.200Z,99709.25
2023-04-08T15:40:47.957Z,99719.13
2023-04-08T15:43:16.806Z,99719.19
2023-04-08T15:45:46.800Z,99709.44
2023-04-08T15:48:15.642Z,99716.94
2023-04-08T15:50:43.878Z,99722.34
2023-04-08T15:53:12.372Z,99730.41
2023-04-08T15:55:41.505Z,99733.03
2023-04-08T15:58:11.234Z,99735.59
2023-04-08T16:00:39.461Z,99735.84
2023-04-08T16:03:11.736Z,99731.28
2023-04-08T16:05:41.810Z,99736.59
2023-04-08T16:08:10.371Z,99739.13
2023-04-08T16:10:39.244Z,99744.38
2023-04-08T16:13:07.760Z,99743.63
2023-04-08T16:15:38.372Z,99735.47
2023-04-08T16:18:08.046Z,99747.34
2023-04-08T16:20:39.203Z,99747.50
2023-04-08T16:23:07.440Z,99752.44
2023-04-08T16:25:35.859Z,99747.41
2023-04-08T16:28:04.100Z,99745.41
2023-04-08T16:30:32.310Z,99759.53
2023-04-08T16:33:01.876Z,99748.63
2023-04-08T16:35:30.213Z,99757.16
2023-04-08T16:37:58.737Z,99754.59
2023-04-08T16:40:26.916Z,99755.28
2023-04-08T16:42:55.729Z,99760.78
2023-04-08T16:45:24.027Z,99751.47
2023-04-08T16:47:52.328Z,99759.28
2023-04-08T16:50:22.206Z,99763.06
2023-04-08T16:52:50.953Z,99755.28
2023-04-08T16:55:20.295Z,99767.44
2023-04-08T16:57:48.436Z,99768.09
2023-04-08T17:00:19.697Z,99768.75
2023-04-08T17:02:49.611Z,99764.59
2023-04-08T17:05:18.204Z,99773.56
2023-04-08T17:07:48.163Z,99784.63
2023-04-08T17:10:16.749Z,99777.22
2023-04-08T17:12:45.485Z,99780.81
2023-04-08T17:15:14.058Z,99789.22
2023-04-08T17:17:42.445Z,99788.22
2023-04-08T17:20:12.167Z,99785.47
2023-04-08T17:22:40.237Z,99792.91
2023-04-08T17:25:10.878Z,99797.56
2023-04-08T17:27:39.280Z,99806.75
2023-04-08T17:30:11.228Z,99811.00
2023-04-08T17:32:39.924Z,99812.13
2023-04-08T17:35:08.504Z,99820.22
2023-04-08T17:37:36.901Z,99817.41
2023-04-08T17:40:05.908Z,99820.16
2023-04-08T17:42:36.932Z,99823.13
2023-04-08T17:45:05.842Z,99824.34
2023-04-08T17:47:34.294Z,99815.44
2023-04-08T17:50:02.552Z,99825.41
2023-04-08T17:52:31.304Z,99819.44
2023-04-08T17:54:59.593Z,99827.59
2023-04-08T17:57:28.633Z,99829.03
2023-04-08T17:59:58.390Z,99833.63
2023-04-08T18:02:27.772Z,99835.28
2023-04-08T18:04:57.058Z,99843.25
2023-04-08T18:07:25.418Z,99842.34
2023-04-08T18:09:54.070Z,99837.28
2023-04-08T18:12:22.541Z,99844.94
2023-04-08T18:14:51.074Z,99847.84
2023-04-08T18:17:20.882Z,99851.44
2023-04-08T18:19:49.011Z,99851.56
2023-04-08T18:22:18.623Z,99860.56
2023-04-08T18:24:47.131Z,99855.44
2023-04-08T18:27:15.481Z,99865.38
2023-04-08T18:29:43.568Z,99871.63
2023-04-08T18:32:11.904Z,99866.25
2023-04-08T18:34:41.881Z,99874.41
2023-04-08T18:37:11.112Z,99875.78
2023-04-08T18:39:41.799Z,99880.56
2023-04-08T18:42:10.121Z,99877.09
2023-04-08T18:44:38.524Z,99889.25
2023-04-08T18:47:08.775Z,99874.75
2023-04-08T18:49:38.570Z,99885.53
2023-04-08T18:52:08.670Z,99875.25
2023-04-08T18:54:37.297Z,99884.81
2023-04-08T18:57:05.574Z,99889.03
2023-04-08T18:59:33.806Z,99885.13
2023-04-08T19:02:03.188Z,99890.78
2023-04-08T19:04:33.539Z,99887.56
2023-04-08T19:07:01.884Z,99882.38
2023-04-08T19:09:32.343Z,99886.47
2023-04-08T19:12:00.464Z,99891.31
2023-04-08T19:14:28.517Z,99891.28
2023-04-08T19:16:56.801Z,99895.97
2023-04-08T19:19:25.063Z,99883.13
2023-04-08T19:21:53.829Z,99893.63
2023-04-08T19:24:22.957Z,99892.31
2023-04-08T19:26:53.387Z,99888.53
2023-04-08T19:29:23.903Z,99889.41
2023-04-08T19:31:52.940Z,99898.91
2023-04-08T19:34:21.277Z,99889.63
2023-04-08T19:36:49.583Z,99898.72
2023-04-08T19:39:18.331Z,99907.59
2023-04-08T19:41:46.448Z,99899.56
2023-04-08T19:44:16.217Z,99903.41
2023-04-08T19:46:44.643Z,99897.97
2023-04-08T19:49:12.709Z,99893.97
2023-04-08T19:51:41.119Z,99904.94
2023-04-08T19:54:09.662Z,99910.84
2023-04-08T19:56:37.942Z,99906.91
2023-04-08T19:59:06.949Z,99911.50
2023-04-08T20:01:36.881Z,99910.41
2023-04-08T20:04:05.180Z,99913.94
2023-04-08T20:06:33.808Z,99908.38
2023-04-08T20:09:05.783Z,99913.78
2023-04-08T20:11:34.162Z,99921.72
2023-04-08T20:14:02.248Z,99920.00
2023-04-08T20:16:30.792Z,99919.00
2023-04-08T20:19:00.774Z,99916.53
2023-04-08T20:21:29.201Z,99921.91
2023-04-08T20:23:57.738Z,99926.28
2023-04-08T20:26:25.957Z,99918.25
2023-04-08T20:28:56.297Z,99922.13
2023-04-08T20:31:27.491Z,99923.06
2023-04-08T20:33:55.608Z,99921.59
2023-04-08T20:36:25.999Z,99924.94
2023-04-08T20:38:55.099Z,99930.00
2023-04-08T20:41:26.092Z,99927.00
2023-04-08T20:43:56.701Z,99922.19
2023-04-08T20:46:24.874Z,99919.50
2023-04-08T20:48:53.748Z,99916.47
2023-04-08T20:51:22.315Z,99918.47
2023-04-08T20:53:51.826Z,99917.19
2023-04-08T20:56:21.238Z,99914.13
2023-04-08T20:58:49.655Z,99921.13
2023-04-08T21:01:17.964Z,99924.59
2023-04-08T21:03:46.439Z,99920.53
2023-04-08T21:06:18.302Z,99932.66
2023-04-08T21:08:47.403Z,99924.25
2023-04-08T21:11:17.833Z,99926.78
2023-04-08T21:13:48.213Z,99930.44
2023-04-08T21:16:17.843Z,99925.97
2023-04-08T21:18:49.549Z,99927.06
2023-04-08T21:21:19.201Z,99931.38
2023-04-08T21:23:48.394Z,99921.69
2023-04-08T21:26:18.296Z,99931.06
2023-04-08T21:28:46.458Z,99923.03
2023-04-08T21:31:15.264Z,99922.34
2023-04-08T21:33:43.740Z,99925.44
2023-04-08T21:36:11.861Z,99927.19
2023-04-08T21:38:42.798Z,99927.78
2023-04-08T21:41:11.020Z,99918.38
2023-04-08T21:43:41.382Z,99929.72
2023-04-08T21:46:09.787Z,99930.09
2023-04-08T21:48:38.206Z,99931.94
2023-04-08T21:51:08.639Z,99930.47
2023-04-08T21:53:37.644Z,99934.66
2023-04-08T21:56:08.048Z,99929.09
2023-04-08T21:58:36.583Z,99924.81
2023-04-08T22:01:06.767Z,99932.25
2023-04-08T22:03:35.395Z,99927.59
2023-04-08T22:06:03.753Z,99938.13
2023-04-08T22:08:32.801Z,99935.53
2023-04-08T22:11:04.497Z,99930.47
2023-04-08T22:13:33.073Z,99931.25
2023-04-08T22:16:01.211Z,99935.91
2023-04-08T22:18:31.353Z,99935.88
2023-04-08T22:20:59.439Z,99929.53
2023-04-08T22:23:29.639Z,99936.16
2023-04-08T22:25:58.039Z,99933.81
2023-04-08T22:28:26.380Z,99927.31
2023-04-08T22:30:56.383Z,99927.13
2023-04-08T22:33:24.613Z,99924.56
2023-04-08T22:35:54.647Z,99920.06
2023-04-08T22:38:23.921Z,99924.19
2023-04-08T22:40:52.762Z,99925.00
2023-04-08T22:43:21.357Z,99923.69
2023-04-08T22:45:49.508Z,99928.13
2023-04-08T22:48:17.653Z,99917.56
2023-04-08T22:50:47.215Z,99923.94
2023-04-08T22:53:16.883Z,99925.91
2023-04-08T22:55:46.573Z,99922.34
2023-04-08T22:58:14.840Z,99923.56
2023-04-08T23:00:43.045Z,99916.94
2023-04-08T23:03:11.507Z,99916.44
2023-04-08T23:05:39.916Z,99918.00
2023-04-08T23:08:08.042Z,99911.56
2023-04-08T23:10:37.710Z,99916.03
2023-04-08T23:13:06.231Z,99913.59
2023-04-08T23:15:34.334Z,99911.66
2023-04-08T23:18:02.765Z,99918.44
2023-04-08T23:20:31.063Z,99916.47
2023-04-08T23:22:59.358Z,99907.53
2023-04-08T23:25:27.584Z,99917.16
2023-04-08T23:27:58.722Z,99918.50
2023-04-08T23:30:26.887Z,99911.38
2023-04-08T23:32:55.181Z,99908.31
2023-04-08T23:35:23.533Z,99915.53
2023-04-08T23:37:51.784Z,99923.56
2023-04-08T23:40:20.181Z,99919.94
2023-04-08T23:42:48.282Z,99911.19
2023-04-08T23:45:17.934Z,99914.50
2023-04-08T23:47:46.113Z,99915.09
2023-04-08T23:50:14.200Z,99915.41
2023-04-08T23:52:42.355Z,99917.34
2023-04-08T23:55:11.578Z,99921.66
2023-04-08T23:57:42.582Z,99922.19
